Time;durP1;ratioP1;P1;durP2;ratioP2;P2;SDS_P1;SDS_P2;PMS_P1;PMS_P2;Temp;Humidity;BMP_temperature;BMP_pressure;BME280_temperature;BME280_humidity;BME280_pressure;Samples;Min_cycle;Max_cycle;Signal;HPM_P1;HPM_P2
2022/01/24 00:02:09;;;;;;;9.67;5.40;;;;;;;;;;5033955;28;20211;-93
2022/01/24 00:04:38;;;;;;;9.33;5.80;;;;;;;;;;5031735;28;20206;-93
2022/01/24 00:07:06;;;;;;;9.53;6.47;;;;;;;;;;5044504;28;20220;-93
2022/01/24 00:09:34;;;;;;;9.13;5.60;;;;;;;;;;5051887;28;20233;-93
2022/01/24 00:12:13;;;;;;;9.70;5.40;;;;;;;;;;5022090;28;20222;-91
2022/01/24 00:14:59;;;;;;;10.33;5.53;;;;;;;;;;5038944;28;20255;-92
2022/01/24 00:17:34;;;;;;;10.40;5.03;;;;;;;;;;5055588;28;20210;-92
2022/01/24 00:28:27;;;;;;;8.27;5.20;;;;;;;;;;5029506;28;20224;-93
2022/01/24 00:30:54;;;;;;;9.00;5.23;;;;;;;;;;5049467;28;20260;-93
2022/01/24 00:33:23;;;;;;;7.37;4.23;;;;;;;;;;5035369;28;20289;-93
2022/01/24 00:35:50;;;;;;;8.00;4.80;;;;;;;;;;5035510;28;20217;-91
2022/01/24 00:38:18;;;;;;;7.03;4.70;;;;;;;;;;5043155;28;20223;-93
2022/01/24 00:40:48;;;;;;;7.30;4.73;;;;;;;;;;5035780;28;20214;-93
2022/01/24 00:43:26;;;;;;;6.03;4.00;;;;;;;;;;5028362;28;20204;-93
2022/01/24 00:45:59;;;;;;;6.90;4.30;;;;;;;;;;5044578;28;20555;-93
2022/01/24 00:48:42;;;;;;;6.60;3.90;;;;;;;;;;5042430;28;20234;-93
2022/01/24 00:54:42;;;;;;;7.27;4.13;;;;;;;;;;5035992;28;20213;-93
2022/01/24 00:56:50;;;;;;;6.80;4.37;;;;;;;;;;5049289;28;20258;-93
2022/01/24 00:59:18;;;;;;;7.60;4.20;;;;;;;;;;5042700;28;20219;-92
2022/01/24 01:01:45;;;;;;;6.10;3.60;;;;;;;;;;5027607;28;20207;-92
2022/01/24 01:04:13;;;;;;;5.53;3.70;;;;;;;;;;5054003;28;20225;-93
2022/01/24 01:06:43;;;;;;;6.30;4.30;;;;;;;;;;5055274;28;20815;-91
2022/01/24 01:20:12;;;;;;;6.30;4.17;;;;;;;;;;5027749;28;20249;-91
2022/01/24 01:22:39;;;;;;;6.67;3.73;;;;;;;;;;5035319;28;20636;-91
2022/01/24 01:25:07;;;;;;;7.03;4.00;;;;;;;;;;5042042;28;20211;-90
2022/01/24 01:27:40;;;;;;;5.63;3.90;;;;;;;;;;5048655;28;20202;-89
2022/01/24 01:30:14;;;;;;;5.13;3.47;;;;;;;;;;5048945;28;20283;-90
2022/01/24 01:32:54;;;;;;;6.60;3.93;;;;;;;;;;5051741;28;20213;-91
2022/01/24 01:35:43;;;;;;;5.00;3.63;;;;;;;;;;5051914;28;20216;-91
2022/01/24 01:57:29;;;;;;;7.37;4.53;;;;;;;;;;5028948;28;20202;-90
2022/01/24 01:59:58;;;;;;;6.40;4.47;;;;;;;;;;5035948;28;20322;-90
2022/01/24 02:02:25;;;;;;;8.33;4.60;;;;;;;;;;5026106;28;20207;-91
2022/01/24 02:04:52;;;;;;;9.77;5.07;;;;;;;;;;5030963;28;20237;-91
2022/01/24 02:07:22;;;;;;;6.83;4.27;;;;;;;;;;5054090;28;20289;-90
2022/01/24 02:09:49;;;;;;;9.17;5.07;;;;;;;;;;5029739;28;20226;-91
2022/01/24 02:12:18;;;;;;;6.30;4.40;;;;;;;;;;5038323;28;20226;-90
2022/01/24 02:14:51;;;;;;;6.90;4.37;;;;;;;;;;5047325;28;20197;-91
2022/01/24 02:17:28;;;;;;;5.97;4.30;;;;;;;;;;5026641;28;20298;-90
2022/01/24 02:20:10;;;;;;;6.77;4.83;;;;;;;;;;5048301;28;20222;-90
2022/01/24 02:22:46;;;;;;;5.67;3.80;;;;;;;;;;5053523;28;20659;-91
2022/01/24 02:25:25;;;;;;;6.20;4.27;;;;;;;;;;5041571;28;20728;-91
2022/01/24 02:27:58;;;;;;;7.23;5.03;;;;;;;;;;5038874;28;20209;-91
2022/01/24 02:30:54;;;;;;;7.40;4.27;;;;;;;;;;5033291;28;20573;-90
2022/01/24 02:33:21;;;;;;;6.73;4.73;;;;;;;;;;5026688;28;20250;-90
2022/01/24 02:35:49;;;;;;;7.53;5.13;;;;;;;;;;5034108;28;20214;-90
2022/01/24 02:38:29;;;;;;;9.00;5.10;;;;;;;;;;5033363;28;20202;-90
2022/01/24 02:49:12;;;;;;;8.60;5.27;;;;;;;;;;5033260;28;20558;-90
2022/01/24 02:51:47;;;;;;;6.23;4.27;;;;;;;;;;5027005;28;20207;-90
2022/01/24 02:54:26;;;;;;;6.27;4.13;;;;;;;;;;5024660;28;20293;-90
2022/01/24 02:56:54;;;;;;;7.50;4.77;;;;;;;;;;5041630;28;20209;-90
2022/01/24 02:59:21;;;;;;;6.83;4.43;;;;;;;;;;5029355;28;20255;-91
2022/01/24 03:01:48;;;;;;;5.80;4.00;;;;;;;;;;5018965;28;20639;-90
2022/01/24 03:04:16;;;;;;;7.97;4.77;;;;;;;;;;5027357;28;20211;-89
2022/01/24 03:06:43;;;;;;;4.87;3.90;;;;;;;;;;5048429;28;20634;-90
2022/01/24 03:09:11;;;;;;;6.63;5.00;;;;;;;;;;5053214;28;20245;-90
2022/01/24 03:11:59;;;;;;;5.00;4.33;;;;;;;;;;5036808;28;20262;-90
2022/01/24 03:14:28;;;;;;;5.03;4.23;;;;;;;;;;5025856;28;20206;-90
2022/01/24 03:16:55;;;;;;;8.53;4.70;;;;;;;;;;5049776;28;20240;-90
2022/01/24 03:19:22;;;;;;;5.23;3.87;;;;;;;;;;5044769;28;20276;-90
2022/01/24 03:21:50;;;;;;;7.90;4.70;;;;;;;;;;5021283;28;20273;-88
2022/01/24 03:24:17;;;;;;;7.00;4.43;;;;;;;;;;5040707;28;20560;-90
2022/01/24 03:26:47;;;;;;;7.27;4.60;;;;;;;;;;5030975;28;20611;-89
2022/01/24 03:29:14;;;;;;;6.40;3.80;;;;;;;;;;5041162;28;20241;-91
2022/01/24 03:31:42;;;;;;;6.13;3.63;;;;;;;;;;5037016;28;20257;-91
2022/01/24 03:34:10;;;;;;;7.40;4.83;;;;;;;;;;5032866;28;20676;-90
2022/01/24 03:36:37;;;;;;;6.30;4.27;;;;;;;;;;5029632;28;20288;-90
2022/01/24 03:39:05;;;;;;;6.20;4.57;;;;;;;;;;5025454;28;20259;-90
2022/01/24 03:41:32;;;;;;;5.37;4.03;;;;;;;;;;5038249;28;20201;-90
2022/01/24 03:44:04;;;;;;;6.07;4.40;;;;;;;;;;5039161;28;20207;-90
2022/01/24 03:46:46;;;;;;;6.23;3.87;;;;;;;;;;5030391;28;20274;-90
2022/01/24 03:49:45;;;;;;;5.70;3.80;;;;;;;;;;5026286;28;20245;-90
2022/01/24 03:52:08;;;;;;;5.00;3.47;;;;;;;;;;5029419;28;20283;-90
2022/01/24 03:54:36;;;;;;;4.80;3.60;;;;;;;;;;5045760;28;20301;-90
2022/01/24 03:57:03;;;;;;;6.30;4.20;;;;;;;;;;5037494;28;20230;-90
2022/01/24 03:59:33;;;;;;;6.70;4.53;;;;;;;;;;5042895;28;20221;-90
2022/01/24 04:02:00;;;;;;;7.47;4.40;;;;;;;;;;5043582;28;20567;-90
2022/01/24 04:04:28;;;;;;;5.60;4.70;;;;;;;;;;5052328;28;20214;-90
2022/01/24 04:06:55;;;;;;;6.70;4.53;;;;;;;;;;5034398;28;20237;-90
2022/01/24 04:09:23;;;;;;;5.70;4.13;;;;;;;;;;5040666;28;20275;-90
2022/01/24 04:11:53;;;;;;;5.53;3.67;;;;;;;;;;5034765;28;20202;-90
2022/01/24 04:14:35;;;;;;;4.77;3.97;;;;;;;;;;5025690;28;20227;-90
2022/01/24 04:17:23;;;;;;;7.10;4.37;;;;;;;;;;5031435;28;20217;-90
2022/01/24 04:22:46;;;;;;;5.30;3.53;;;;;;;;;;5045622;28;20204;-89
2022/01/24 04:25:16;;;;;;;7.00;3.50;;;;;;;;;;5022055;28;20288;-90
2022/01/24 04:27:43;;;;;;;4.10;3.33;;;;;;;;;;5043304;28;20285;-89
2022/01/24 04:30:11;;;;;;;5.13;3.50;;;;;;;;;;5052348;28;20233;-90
2022/01/24 04:32:40;;;;;;;6.90;3.53;;;;;;;;;;5035157;28;20268;-90
2022/01/24 04:35:08;;;;;;;5.07;3.33;;;;;;;;;;5035787;28;20206;-90
2022/01/24 04:37:35;;;;;;;5.90;3.43;;;;;;;;;;5037217;28;20272;-90
2022/01/24 04:40:02;;;;;;;5.77;3.87;;;;;;;;;;5027307;28;20222;-90
2022/01/24 04:42:38;;;;;;;4.90;3.03;;;;;;;;;;5025152;28;20297;-90
2022/01/24 04:45:27;;;;;;;5.07;3.33;;;;;;;;;;5041401;28;20217;-90
2022/01/24 04:50:57;;;;;;;3.83;3.10;;;;;;;;;;5050523;28;20244;-90
2022/01/24 04:53:45;;;;;;;5.13;3.53;;;;;;;;;;5034589;28;20226;-90
2022/01/24 04:56:13;;;;;;;5.73;3.70;;;;;;;;;;5010674;28;20652;-89
2022/01/24 04:58:40;;;;;;;7.50;4.40;;;;;;;;;;5031258;28;20227;-90
2022/01/24 05:01:07;;;;;;;4.13;3.40;;;;;;;;;;5031676;28;20206;-90
2022/01/24 05:03:36;;;;;;;5.50;3.87;;;;;;;;;;5034975;28;20211;-90
2022/01/24 05:06:03;;;;;;;5.80;3.93;;;;;;;;;;5027004;28;20265;-90
2022/01/24 05:08:31;;;;;;;4.20;3.40;;;;;;;;;;5037073;28;20224;-90
2022/01/24 05:11:04;;;;;;;5.27;2.80;;;;;;;;;;5052896;28;20267;-90
2022/01/24 05:24:32;;;;;;;5.03;3.90;;;;;;;;;;5025370;28;20333;-92
2022/01/24 05:27:00;;;;;;;6.20;4.03;;;;;;;;;;5027772;28;20227;-92
2022/01/24 05:29:27;;;;;;;11.00;5.43;;;;;;;;;;5054587;28;20597;-90
2022/01/24 05:31:55;;;;;;;5.27;3.60;;;;;;;;;;5036730;28;20222;-92
2022/01/24 05:34:24;;;;;;;6.43;3.93;;;;;;;;;;5043113;28;20593;-92
2022/01/24 05:36:51;;;;;;;6.03;4.27;;;;;;;;;;5054584;28;20221;-91
2022/01/24 05:39:19;;;;;;;5.87;4.00;;;;;;;;;;5043349;28;20254;-91
2022/01/24 05:41:46;;;;;;;7.13;4.37;;;;;;;;;;5031309;28;20261;-92
2022/01/24 05:44:13;;;;;;;5.90;3.87;;;;;;;;;;5042347;28;20643;-92
2022/01/24 05:46:40;;;;;;;6.17;4.13;;;;;;;;;;5031000;28;20218;-91
2022/01/24 05:49:08;;;;;;;5.77;4.00;;;;;;;;;;5026522;28;20754;-92
2022/01/24 05:51:36;;;;;;;5.57;3.93;;;;;;;;;;5041142;28;20199;-91
2022/01/24 05:54:04;;;;;;;6.23;3.80;;;;;;;;;;5039643;28;20276;-92
2022/01/24 05:56:31;;;;;;;7.37;4.73;;;;;;;;;;5019952;28;20203;-92
2022/01/24 05:58:59;;;;;;;5.10;3.60;;;;;;;;;;5030260;28;20230;-91
2022/01/24 06:01:26;;;;;;;5.03;3.57;;;;;;;;;;5030484;28;20210;-92
2022/01/24 06:03:53;;;;;;;8.77;4.30;;;;;;;;;;5046755;28;20202;-91
2022/01/24 06:06:21;;;;;;;5.63;4.23;;;;;;;;;;5028111;28;20578;-91
2022/01/24 06:08:49;;;;;;;5.37;3.77;;;;;;;;;;5037389;28;20305;-92
2022/01/24 06:17:17;;;;;;;5.17;3.73;;;;;;;;;;5021393;28;20228;-92
2022/01/24 06:19:49;;;;;;;4.10;3.67;;;;;;;;;;5038905;28;20234;-93
2022/01/24 06:22:17;;;;;;;6.40;5.40;;;;;;;;;;5030076;28;20629;-93
2022/01/24 06:24:46;;;;;;;6.23;4.23;;;;;;;;;;5022935;28;20207;-93
2022/01/24 06:27:13;;;;;;;4.93;3.87;;;;;;;;;;5032993;28;20248;-93
2022/01/24 06:29:41;;;;;;;5.80;4.30;;;;;;;;;;5015398;28;20893;-92
2022/01/24 06:32:08;;;;;;;7.80;5.20;;;;;;;;;;5045001;28;20214;-92
2022/01/24 06:34:51;;;;;;;7.40;5.37;;;;;;;;;;5047990;28;20686;-93
2022/01/24 06:37:18;;;;;;;6.17;4.07;;;;;;;;;;5054028;28;20240;-93
2022/01/24 06:39:47;;;;;;;5.87;4.20;;;;;;;;;;5022139;28;20277;-92
2022/01/24 06:42:21;;;;;;;8.20;5.57;;;;;;;;;;5034132;28;20210;-91
2022/01/24 06:44:49;;;;;;;6.80;4.73;;;;;;;;;;5052764;28;20765;-91
2022/01/24 06:47:16;;;;;;;6.77;4.20;;;;;;;;;;5020126;28;20211;-91
2022/01/24 06:49:44;;;;;;;7.67;4.57;;;;;;;;;;5028812;28;20226;-90
2022/01/24 06:52:13;;;;;;;8.03;4.40;;;;;;;;;;5040858;28;20203;-92
2022/01/24 06:54:41;;;;;;;7.10;4.57;;;;;;;;;;5017690;28;20224;-92
2022/01/24 06:57:11;;;;;;;5.77;4.43;;;;;;;;;;5031093;28;20230;-91
2022/01/24 06:59:38;;;;;;;5.97;4.10;;;;;;;;;;5029656;28;20229;-91
2022/01/24 07:02:06;;;;;;;6.80;4.67;;;;;;;;;;5040560;28;20207;-92
2022/01/24 07:04:33;;;;;;;7.40;4.50;;;;;;;;;;5037344;28;20540;-93
2022/01/24 07:07:01;;;;;;;8.93;5.63;;;;;;;;;;5027607;28;20601;-92
2022/01/24 07:09:28;;;;;;;6.93;4.23;;;;;;;;;;5030980;28;20229;-92
2022/01/24 07:11:56;;;;;;;6.60;4.73;;;;;;;;;;5053604;28;20594;-92
2022/01/24 07:14:24;;;;;;;5.63;4.43;;;;;;;;;;5045308;28;20222;-91
2022/01/24 07:17:09;;;;;;;6.57;4.33;;;;;;;;;;5038307;28;20270;-92
2022/01/24 07:19:37;;;;;;;5.37;4.07;;;;;;;;;;5038497;28;20219;-92
2022/01/24 07:22:05;;;;;;;7.73;4.80;;;;;;;;;;5033057;28;20288;-92
2022/01/24 07:24:33;;;;;;;8.90;4.90;;;;;;;;;;5029914;28;20202;-90
2022/01/24 07:27:00;;;;;;;7.77;4.90;;;;;;;;;;5035683;28;20222;-91
2022/01/24 07:29:29;;;;;;;7.23;5.37;;;;;;;;;;5047269;28;20276;-91
2022/01/24 07:31:56;;;;;;;8.37;5.53;;;;;;;;;;5033298;28;20272;-91
2022/01/24 07:34:23;;;;;;;8.73;5.50;;;;;;;;;;5027409;28;20217;-91
2022/01/24 07:36:51;;;;;;;7.57;5.33;;;;;;;;;;5040089;28;20256;-91
2022/01/24 07:39:19;;;;;;;8.20;4.93;;;;;;;;;;5032958;28;20227;-91
2022/01/24 07:41:47;;;;;;;7.50;4.77;;;;;;;;;;5022368;28;20261;-91
2022/01/24 07:44:15;;;;;;;7.07;5.10;;;;;;;;;;5034054;28;20648;-92
2022/01/24 07:46:43;;;;;;;6.93;4.83;;;;;;;;;;5037558;28;20211;-93
2022/01/24 07:49:12;;;;;;;7.10;4.70;;;;;;;;;;5029478;28;20257;-92
2022/01/24 07:51:39;;;;;;;11.53;5.70;;;;;;;;;;5037740;28;20622;-92
2022/01/24 07:54:08;;;;;;;11.43;5.40;;;;;;;;;;5034797;28;20249;-92
2022/01/24 07:56:36;;;;;;;9.43;5.67;;;;;;;;;;5032463;28;20214;-92
2022/01/24 07:59:03;;;;;;;8.13;5.63;;;;;;;;;;5025305;28;20796;-92
2022/01/24 08:01:30;;;;;;;8.70;5.87;;;;;;;;;;5040917;28;20218;-92
2022/01/24 08:03:59;;;;;;;10.20;6.00;;;;;;;;;;5039324;28;20660;-92
2022/01/24 08:06:27;;;;;;;8.80;5.27;;;;;;;;;;5026974;28;20203;-92
2022/01/24 08:08:54;;;;;;;8.10;5.60;;;;;;;;;;5030531;28;20239;-92
2022/01/24 08:11:22;;;;;;;8.40;6.07;;;;;;;;;;5039783;28;20272;-92
2022/01/24 08:13:49;;;;;;;7.67;6.03;;;;;;;;;;5026678;28;20226;-92
2022/01/24 08:16:17;;;;;;;7.63;5.63;;;;;;;;;;5029597;28;20233;-91
2022/01/24 08:18:45;;;;;;;8.90;5.77;;;;;;;;;;5034456;28;20234;-92
2022/01/24 08:21:13;;;;;;;8.73;6.07;;;;;;;;;;5026822;28;20203;-92
2022/01/24 08:23:41;;;;;;;8.57;6.40;;;;;;;;;;5033486;28;20198;-92
2022/01/24 08:26:08;;;;;;;9.47;6.83;;;;;;;;;;5040698;28;20261;-93
2022/01/24 08:28:35;;;;;;;12.03;6.27;;;;;;;;;;5032272;28;20644;-91
2022/01/24 08:31:03;;;;;;;9.87;6.10;;;;;;;;;;5028379;28;20230;-92
2022/01/24 08:33:30;;;;;;;10.53;6.53;;;;;;;;;;5043249;28;20252;-92
2022/01/24 08:35:57;;;;;;;8.83;6.30;;;;;;;;;;5052280;28;20214;-92
2022/01/24 08:38:26;;;;;;;9.63;6.40;;;;;;;;;;5051706;28;20222;-92
2022/01/24 08:40:58;;;;;;;8.37;6.17;;;;;;;;;;5036310;28;20234;-93
2022/01/24 08:43:38;;;;;;;8.53;6.50;;;;;;;;;;5017689;28;20199;-94
2022/01/24 08:46:05;;;;;;;9.97;6.67;;;;;;;;;;5044813;28;20214;-93
2022/01/24 08:48:33;;;;;;;9.33;6.33;;;;;;;;;;5051899;28;20230;-91
2022/01/24 08:51:01;;;;;;;10.87;6.90;;;;;;;;;;5030234;28;20215;-93
2022/01/24 08:53:31;;;;;;;12.27;6.97;;;;;;;;;;5034607;28;20202;-94
2022/01/24 08:55:59;;;;;;;10.70;6.90;;;;;;;;;;5036822;28;20210;-93
2022/01/24 08:58:27;;;;;;;9.83;6.40;;;;;;;;;;5032510;28;20227;-93
2022/01/24 09:00:54;;;;;;;9.50;6.97;;;;;;;;;;5030925;28;20218;-93
2022/01/24 09:03:22;;;;;;;9.73;6.90;;;;;;;;;;5033891;28;20202;-93
2022/01/24 09:05:52;;;;;;;8.53;6.43;;;;;;;;;;5025438;28;20211;-93
2022/01/24 09:08:20;;;;;;;13.77;7.37;;;;;;;;;;5022201;28;20295;-93
2022/01/24 09:10:49;;;;;;;9.90;6.43;;;;;;;;;;5042128;28;20252;-92
2022/01/24 09:13:18;;;;;;;10.23;7.43;;;;;;;;;;5026437;28;20261;-93
2022/01/24 09:15:46;;;;;;;11.00;7.60;;;;;;;;;;5029786;28;20265;-93
2022/01/24 09:18:13;;;;;;;9.03;6.93;;;;;;;;;;5032277;28;20202;-93
2022/01/24 09:20:41;;;;;;;9.47;7.13;;;;;;;;;;5036820;28;20234;-93
2022/01/24 09:23:08;;;;;;;9.00;6.63;;;;;;;;;;5039280;28;20489;-93
2022/01/24 09:25:36;;;;;;;8.73;6.70;;;;;;;;;;5035214;28;20209;-93
2022/01/24 09:28:05;;;;;;;9.03;7.17;;;;;;;;;;5047426;28;20260;-93
2022/01/24 09:30:33;;;;;;;9.63;5.73;;;;;;;;;;5033735;28;20215;-93
2022/01/24 09:33:00;;;;;;;7.43;5.97;;;;;;;;;;5027564;28;20238;-93
2022/01/24 09:35:29;;;;;;;8.07;6.43;;;;;;;;;;5019544;28;20247;-94
2022/01/24 09:37:56;;;;;;;9.27;6.13;;;;;;;;;;5028924;28;20203;-92
2022/01/24 09:40:24;;;;;;;8.27;5.60;;;;;;;;;;5030992;28;20206;-93
2022/01/24 09:42:52;;;;;;;7.80;6.00;;;;;;;;;;5011058;28;20300;-93
2022/01/24 09:45:22;;;;;;;8.10;5.70;;;;;;;;;;5035251;28;20252;-93
2022/01/24 09:47:55;;;;;;;6.03;5.43;;;;;;;;;;5029049;28;20206;-93
2022/01/24 09:50:22;;;;;;;6.77;5.77;;;;;;;;;;5023106;28;20326;-93
2022/01/24 09:52:50;;;;;;;7.40;5.87;;;;;;;;;;5022038;28;20242;-92
2022/01/24 09:55:19;;;;;;;5.00;4.50;;;;;;;;;;5033861;28;20321;-93
2022/01/24 09:57:47;;;;;;;5.03;3.87;;;;;;;;;;5044278;28;20234;-93
2022/01/24 10:00:16;;;;;;;7.27;4.47;;;;;;;;;;5029717;28;20226;-94
2022/01/24 10:02:46;;;;;;;7.80;3.93;;;;;;;;;;5036416;28;20210;-93
2022/01/24 10:05:14;;;;;;;4.70;3.30;;;;;;;;;;5040421;28;20843;-93
2022/01/24 10:07:42;;;;;;;4.10;3.70;;;;;;;;;;5025994;28;20198;-93
2022/01/24 10:10:10;;;;;;;4.93;3.17;;;;;;;;;;5020677;28;20231;-94
2022/01/24 10:18:06;;;;;;;4.37;3.40;;;;;;;;;;5014626;28;20233;-93
2022/01/24 10:20:34;;;;;;;4.37;3.47;;;;;;;;;;5032220;28;20256;-93
2022/01/24 10:23:03;;;;;;;4.57;2.80;;;;;;;;;;5039422;28;20214;-92
2022/01/24 10:25:31;;;;;;;6.07;2.97;;;;;;;;;;5021652;28;20268;-93
2022/01/24 10:28:02;;;;;;;4.77;2.77;;;;;;;;;;5027691;28;20659;-93
2022/01/24 10:30:30;;;;;;;4.03;2.70;;;;;;;;;;5028502;28;20465;-92
2022/01/24 10:33:00;;;;;;;4.23;2.77;;;;;;;;;;5027938;28;20210;-92
2022/01/24 10:35:31;;;;;;;4.83;2.53;;;;;;;;;;5025320;28;20218;-93
2022/01/24 10:38:17;;;;;;;2.83;2.60;;;;;;;;;;5021638;28;20208;-94
2022/01/24 10:40:52;;;;;;;3.93;2.50;;;;;;;;;;5028646;28;20214;-93
2022/01/24 10:43:21;;;;;;;2.43;2.23;;;;;;;;;;5021846;28;20285;-93
2022/01/24 10:45:57;;;;;;;2.33;2.13;;;;;;;;;;5030193;28;20199;-94
2022/01/24 10:48:25;;;;;;;3.03;2.43;;;;;;;;;;5013326;28;20231;-93
2022/01/24 10:51:08;;;;;;;3.33;2.60;;;;;;;;;;5033732;28;20222;-92
2022/01/24 10:53:36;;;;;;;3.43;2.67;;;;;;;;;;5024377;28;20203;-93
2022/01/24 10:56:04;;;;;;;5.70;2.77;;;;;;;;;;5010414;28;20691;-92
2022/01/24 10:58:36;;;;;;;2.87;2.33;;;;;;;;;;5017890;28;20227;-93
2022/01/24 11:01:07;;;;;;;4.10;2.67;;;;;;;;;;5025086;28;20211;-93
2022/01/24 11:03:34;;;;;;;3.57;2.60;;;;;;;;;;5033418;28;20234;-94
2022/01/24 11:06:03;;;;;;;2.40;2.20;;;;;;;;;;5023941;28;20843;-91
2022/01/24 11:08:31;;;;;;;2.40;2.23;;;;;;;;;;5013665;28;20231;-93
2022/01/24 11:10:59;;;;;;;2.17;1.60;;;;;;;;;;5027215;28;20215;-93
2022/01/24 11:13:31;;;;;;;2.73;2.20;;;;;;;;;;5025236;28;20211;-93
2022/01/24 11:16:00;;;;;;;2.60;2.17;;;;;;;;;;5019918;28;20709;-91
2022/01/24 11:18:28;;;;;;;2.53;2.33;;;;;;;;;;5019796;28;20297;-93
2022/01/24 11:21:02;;;;;;;4.30;2.40;;;;;;;;;;5032022;28;20210;-93
2022/01/24 11:23:29;;;;;;;4.00;2.60;;;;;;;;;;5010333;28;20253;-93
2022/01/24 11:25:58;;;;;;;2.40;2.10;;;;;;;;;;5009109;28;20211;-93
2022/01/24 11:28:26;;;;;;;2.40;2.20;;;;;;;;;;5022932;28;20271;-93
2022/01/24 11:30:58;;;;;;;4.67;2.37;;;;;;;;;;5038371;28;20206;-93
2022/01/24 11:33:38;;;;;;;3.63;2.10;;;;;;;;;;5050039;28;20256;-92
2022/01/24 11:36:07;;;;;;;2.80;1.80;;;;;;;;;;5037575;28;20225;-93
2022/01/24 11:38:36;;;;;;;2.93;2.47;;;;;;;;;;5037833;28;20222;-92
2022/01/24 11:41:06;;;;;;;3.87;2.20;;;;;;;;;;5047704;28;20209;-93
2022/01/24 11:43:35;;;;;;;3.23;2.53;;;;;;;;;;5021715;28;20199;-93
2022/01/24 11:46:06;;;;;;;2.80;2.43;;;;;;;;;;5031209;28;20566;-92
2022/01/24 11:48:34;;;;;;;3.80;2.20;;;;;;;;;;5035474;28;20639;-92
2022/01/24 11:51:05;;;;;;;2.83;2.30;;;;;;;;;;5024405;28;20763;-93
2022/01/24 11:53:34;;;;;;;2.43;2.23;;;;;;;;;;5026831;28;20202;-93
2022/01/24 11:56:16;;;;;;;4.90;2.53;;;;;;;;;;5042621;28;20698;-92
2022/01/24 11:58:53;;;;;;;2.83;2.30;;;;;;;;;;5037984;28;20272;-93
2022/01/24 12:01:36;;;;;;;2.30;2.10;;;;;;;;;;5024364;28;20202;-93
2022/01/24 12:04:04;;;;;;;2.67;2.47;;;;;;;;;;5037833;28;20202;-93
2022/01/24 12:06:31;;;;;;;2.90;2.60;;;;;;;;;;5025086;28;20203;-93
2022/01/24 12:09:05;;;;;;;4.13;2.40;;;;;;;;;;5020139;28;20251;-93
2022/01/24 12:11:35;;;;;;;2.50;2.27;;;;;;;;;;5034721;28;20251;-93
2022/01/24 12:14:13;;;;;;;2.70;2.33;;;;;;;;;;5021544;28;20421;-94
2022/01/24 12:16:43;;;;;;;3.83;2.20;;;;;;;;;;5021190;28;20223;-91
2022/01/24 12:19:11;;;;;;;4.80;2.87;;;;;;;;;;5021356;28;20302;-93
2022/01/24 12:21:39;;;;;;;2.60;2.30;;;;;;;;;;5041269;28;20209;-92
2022/01/24 12:24:10;;;;;;;2.57;2.37;;;;;;;;;;5020631;28;20199;-92
2022/01/24 12:26:40;;;;;;;3.27;2.73;;;;;;;;;;5019095;28;20264;-93
2022/01/24 12:29:09;;;;;;;2.93;2.50;;;;;;;;;;5030790;28;20238;-93
2022/01/24 12:31:38;;;;;;;7.20;2.80;;;;;;;;;;5015289;28;20233;-92
2022/01/24 12:34:12;;;;;;;3.50;2.70;;;;;;;;;;5019902;28;20226;-92
2022/01/24 12:36:59;;;;;;;2.80;2.07;;;;;;;;;;5041341;28;20221;-93
2022/01/24 12:39:33;;;;;;;2.57;2.30;;;;;;;;;;5029346;28;20309;-92
2022/01/24 12:42:11;;;;;;;5.03;2.80;;;;;;;;;;5028150;28;20310;-93
2022/01/24 12:47:26;;;;;;;3.43;2.60;;;;;;;;;;5026080;28;20205;-92
2022/01/24 12:49:55;;;;;;;2.90;2.60;;;;;;;;;;5027437;28;20306;-92
2022/01/24 12:52:24;;;;;;;2.27;2.07;;;;;;;;;;5027194;28;20234;-93
2022/01/24 12:54:53;;;;;;;2.93;2.67;;;;;;;;;;5031352;28;20763;-92
2022/01/24 12:57:22;;;;;;;2.63;2.30;;;;;;;;;;5041460;28;20262;-92
2022/01/24 12:59:53;;;;;;;3.40;2.60;;;;;;;;;;5017636;28;20651;-92
2022/01/24 13:02:24;;;;;;;4.60;2.70;;;;;;;;;;5030661;28;20293;-93
2022/01/24 13:04:52;;;;;;;3.10;2.83;;;;;;;;;;5034975;28;20217;-93
2022/01/24 13:07:21;;;;;;;3.17;2.80;;;;;;;;;;5018789;28;20648;-92
2022/01/24 13:09:48;;;;;;;3.57;2.40;;;;;;;;;;5026713;28;20231;-94
2022/01/24 13:12:16;;;;;;;3.33;2.60;;;;;;;;;;5032201;28;20203;-94
2022/01/24 13:14:47;;;;;;;3.80;2.83;;;;;;;;;;5045991;28;20650;-93
2022/01/24 13:22:51;;;;;;;4.07;2.70;;;;;;;;;;5032172;28;20256;-93
2022/01/24 13:25:20;;;;;;;3.27;2.80;;;;;;;;;;5011736;28;20207;-93
2022/01/24 13:27:48;;;;;;;4.03;2.80;;;;;;;;;;5022256;28;20575;-93
2022/01/24 13:30:17;;;;;;;6.03;2.80;;;;;;;;;;5025563;28;20217;-93
2022/01/24 13:32:46;;;;;;;4.20;2.93;;;;;;;;;;5027439;28;20648;-93
2022/01/24 13:35:18;;;;;;;3.57;2.97;;;;;;;;;;5029038;28;20226;-92
2022/01/24 13:37:47;;;;;;;3.13;2.73;;;;;;;;;;5025087;28;20211;-93
2022/01/24 13:40:14;;;;;;;3.23;2.93;;;;;;;;;;5039441;28;20761;-93
2022/01/24 13:42:42;;;;;;;2.80;2.60;;;;;;;;;;5026424;28;20253;-93
2022/01/24 13:45:09;;;;;;;3.47;3.07;;;;;;;;;;5031193;28;20199;-93
2022/01/24 13:47:36;;;;;;;4.07;2.77;;;;;;;;;;5008419;28;20207;-93
2022/01/24 13:50:05;;;;;;;3.20;2.90;;;;;;;;;;5023151;28;20251;-93
2022/01/24 13:52:33;;;;;;;3.30;2.70;;;;;;;;;;5030914;28;20206;-94
2022/01/24 13:55:17;;;;;;;4.50;3.13;;;;;;;;;;5023137;28;20207;-94
2022/01/24 13:57:46;;;;;;;4.97;2.80;;;;;;;;;;5024920;28;20755;-94
2022/01/24 14:00:15;;;;;;;5.60;3.33;;;;;;;;;;5043548;28;20241;-94
2022/01/24 14:02:43;;;;;;;4.93;3.57;;;;;;;;;;5035697;28;20210;-93
2022/01/24 14:05:10;;;;;;;5.60;3.20;;;;;;;;;;5011982;28;20265;-93
2022/01/24 14:07:41;;;;;;;5.17;3.40;;;;;;;;;;5017849;28;20211;-92
2022/01/24 14:10:10;;;;;;;3.77;3.37;;;;;;;;;;5041224;28;20227;-92
2022/01/24 14:12:50;;;;;;;4.63;3.10;;;;;;;;;;5041420;28;20222;-92
2022/01/24 14:15:25;;;;;;;4.87;3.40;;;;;;;;;;5025213;28;20199;-92
2022/01/24 14:18:22;;;;;;;3.17;2.87;;;;;;;;;;5018186;28;20241;-92
2022/01/24 14:20:51;;;;;;;4.07;3.50;;;;;;;;;;5031313;28;20334;-92
2022/01/24 14:23:22;;;;;;;6.47;3.83;;;;;;;;;;5021000;28;20210;-93
2022/01/24 14:25:49;;;;;;;3.80;2.10;;;;;;;;;;5039230;28;20201;-91
2022/01/24 14:28:22;;;;;;;4.77;3.47;;;;;;;;;;5015448;28;20265;-93
2022/01/24 14:30:49;;;;;;;3.60;3.07;;;;;;;;;;5021052;28;20858;-93
2022/01/24 14:33:18;;;;;;;3.57;3.03;;;;;;;;;;5013664;28;20213;-92
2022/01/24 14:35:53;;;;;;;3.40;2.93;;;;;;;;;;5027167;28;20259;-92
2022/01/24 14:38:34;;;;;;;4.70;3.47;;;;;;;;;;5014385;28;20319;-92
2022/01/24 14:41:03;;;;;;;5.03;3.77;;;;;;;;;;5020649;28;20211;-92
2022/01/24 14:46:18;;;;;;;5.20;3.67;;;;;;;;;;5022664;28;20198;-92
2022/01/24 14:48:47;;;;;;;3.97;3.57;;;;;;;;;;5029907;28;20253;-91
2022/01/24 14:51:16;;;;;;;4.60;3.20;;;;;;;;;;5010329;28;20211;-93
2022/01/24 14:53:44;;;;;;;5.10;3.20;;;;;;;;;;4995307;28;20219;-92
2022/01/24 14:56:13;;;;;;;5.23;3.53;;;;;;;;;;4998587;28;20267;-92
2022/01/24 14:58:42;;;;;;;3.53;2.90;;;;;;;;;;5003873;28;20226;-92
2022/01/24 15:01:09;;;;;;;4.03;3.60;;;;;;;;;;5032011;28;20804;-93
2022/01/24 15:03:37;;;;;;;5.33;3.33;;;;;;;;;;5030813;28;20324;-91
2022/01/24 15:06:05;;;;;;;5.27;2.93;;;;;;;;;;5027953;28;20652;-93
2022/01/24 15:08:32;;;;;;;4.30;3.23;;;;;;;;;;5030789;28;20227;-93
2022/01/24 15:11:00;;;;;;;4.90;3.60;;;;;;;;;;5029700;28;20207;-91
2022/01/24 15:13:35;;;;;;;5.20;3.97;;;;;;;;;;5030089;28;20730;-93
2022/01/24 15:16:13;;;;;;;4.23;3.40;;;;;;;;;;5015284;28;20223;-93
2022/01/24 15:24:29;;;;;;;4.20;3.53;;;;;;;;;;5029957;28;20206;-92
2022/01/24 15:26:57;;;;;;;4.00;3.10;;;;;;;;;;5029146;28;20758;-93
2022/01/24 15:29:24;;;;;;;4.63;3.60;;;;;;;;;;5019340;28;20221;-91
2022/01/24 15:31:53;;;;;;;4.97;3.27;;;;;;;;;;5038029;28;20206;-93
2022/01/24 15:34:22;;;;;;;5.93;3.33;;;;;;;;;;5040506;28;20257;-93
2022/01/24 15:36:49;;;;;;;5.80;2.83;;;;;;;;;;5021743;28;20218;-91
2022/01/24 15:39:17;;;;;;;6.17;3.57;;;;;;;;;;5029624;28;20806;-93
2022/01/24 15:41:51;;;;;;;5.60;3.43;;;;;;;;;;5041089;28;20206;-93
2022/01/24 15:44:49;;;;;;;6.00;3.40;;;;;;;;;;5026579;28;20206;-93
2022/01/24 15:47:31;;;;;;;3.90;2.90;;;;;;;;;;5018296;28;20198;-93
2022/01/24 15:49:58;;;;;;;5.47;3.30;;;;;;;;;;5035955;28;20222;-93
2022/01/24 15:52:25;;;;;;;7.03;3.77;;;;;;;;;;5018409;28;20206;-93
2022/01/24 15:54:55;;;;;;;8.63;3.30;;;;;;;;;;5019182;28;20207;-94
2022/01/24 16:00:05;;;;;;;3.43;3.13;;;;;;;;;;5036329;28;20225;-93
2022/01/24 16:02:33;;;;;;;3.17;2.87;;;;;;;;;;5007824;28;20211;-92
2022/01/24 16:05:01;;;;;;;3.77;3.20;;;;;;;;;;5019429;28;20217;-93
2022/01/24 16:07:28;;;;;;;6.00;3.37;;;;;;;;;;5030304;28;20202;-93
2022/01/24 16:09:55;;;;;;;4.20;3.33;;;;;;;;;;5029300;28;20225;-92
2022/01/24 16:12:23;;;;;;;6.13;3.30;;;;;;;;;;5020062;28;20349;-93
2022/01/24 16:14:50;;;;;;;3.63;2.90;;;;;;;;;;5028066;28;20273;-92
2022/01/24 16:17:18;;;;;;;4.17;3.40;;;;;;;;;;5029541;28;20230;-93
2022/01/24 16:19:52;;;;;;;5.07;3.33;;;;;;;;;;5015022;28;20229;-92
2022/01/24 16:22:33;;;;;;;7.90;3.67;;;;;;;;;;5029395;28;20209;-93
2022/01/24 16:27:46;;;;;;;3.80;3.20;;;;;;;;;;5025144;28;20324;-93
2022/01/24 16:30:13;;;;;;;5.53;3.60;;;;;;;;;;5019088;28;20222;-93
2022/01/24 16:32:41;;;;;;;4.83;3.43;;;;;;;;;;5034704;28;20198;-93
2022/01/24 16:35:10;;;;;;;6.17;3.90;;;;;;;;;;5048029;28;20202;-93
2022/01/24 16:37:37;;;;;;;4.60;3.27;;;;;;;;;;5030104;28;20222;-92
2022/01/24 16:40:09;;;;;;;4.93;3.37;;;;;;;;;;5027875;28;20750;-93
2022/01/24 16:42:52;;;;;;;6.40;3.60;;;;;;;;;;5012087;28;20215;-93